Terminal Aerodrome Forecast
Issued by NWS

Home | Current Version | Previous Version | Text Only | Print | Product List | Glossary On
Versions: 1 2 3 4 5 6 7 8 9 10 11 12 13 14 15 16 17 18 19 20 21 22 23 24 25 26 27 28 29 30 31 32 33 34 35 36 37 38 39 40 41 42 43 44 45 46 47 48 49 50
965
FTUS43 KLOT 201127
TAFGYY
TAF
KGYY 201127Z 2012/2112 07010KT 2SM -SHRA BR BKN002 OVC005
      TEMPO 2012/2014 1SM -SHRADZ BR
     FM201430 08006KT 1 1/2SM -DZ BR OVC003
     FM201800 16005KT 4SM BR OVC006
     FM210300 13006KT 1SM -DZ BR OVC004=

USA.gov is the U.S. government's official web portal to all federal, state and local government web resources and services.